createdAt,value
2022-09-23T00:01:04.290Z,100224.66
2022-09-23T00:03:32.988Z,100222.97
2022-09-23T00:06:01.692Z,100223.97
2022-09-23T00:08:29.405Z,100204.44
2022-09-23T00:10:56.461Z,100218.03
2022-09-23T00:13:24.834Z,100217.38
2022-09-23T00:15:52.131Z,100215.53
2022-09-23T00:18:20.798Z,100206.06
2022-09-23T00:20:47.943Z,100212.69
2022-09-23T00:23:14.840Z,100188.81
2022-09-23T00:25:41.860Z,100196.91
2022-09-23T00:28:08.461Z,100189.66
2022-09-23T00:30:35.185Z,100202.41
2022-09-23T00:33:02.095Z,100186.16
2022-09-23T00:35:28.799Z,100186.50
2022-09-23T00:37:56.181Z,100190.47
2022-09-23T00:40:23.166Z,100187.78
2022-09-23T00:42:52.033Z,100185.78
2022-09-23T00:45:19.511Z,100188.47
2022-09-23T00:47:58.154Z,100188.47
2022-09-23T00:50:36.580Z,100176.50
2022-09-23T00:53:08.371Z,100189.28
2022-09-23T00:55:40.215Z,100193.78
2022-09-23T00:58:11.218Z,100195.59
2022-09-23T01:00:38.603Z,100190.47
2022-09-23T01:03:06.885Z,100188.81
2022-09-23T01:05:34.346Z,100181.34
2022-09-23T01:08:04.363Z,100176.88
2022-09-23T01:10:43.045Z,100184.13
2022-09-23T01:13:26.765Z,100184.94
2022-09-23T01:16:13.815Z,100183.31
2022-09-23T01:18:59.649Z,100181.28
2022-09-23T01:21:41.272Z,100182.47
2022-09-23T01:24:37.427Z,100183.13
2022-09-23T01:27:37.359Z,100190.09
2022-09-23T01:30:32.989Z,100182.47
2022-09-23T01:33:09.966Z,100181.47
2022-09-23T01:35:43.090Z,100184.13
2022-09-23T01:38:34.535Z,100181.84
2022-09-23T01:41:15.615Z,100191.66
2022-09-23T01:43:57.994Z,100179.72
2022-09-23T01:46:33.051Z,100184.50
2022-09-23T01:49:16.079Z,100185.50
2022-09-23T01:51:49.413Z,100180.34
2022-09-23T01:54:21.921Z,100185.69
2022-09-23T01:57:11.146Z,100171.56
2022-09-23T01:59:51.036Z,100173.28
2022-09-23T02:02:23.900Z,100174.03
2022-09-23T02:05:05.224Z,100175.66
2022-09-23T02:07:41.347Z,100160.59
2022-09-23T02:10:20.049Z,100170.53
2022-09-23T02:12:52.235Z,100169.53
2022-09-23T02:15:23.656Z,100167.84
2022-09-23T02:17:59.527Z,100169.53
2022-09-23T02:20:33.236Z,100165.19
2022-09-23T02:23:06.367Z,100167.84
2022-09-23T02:25:57.996Z,100152.81
2022-09-23T02:28:43.533Z,100167.84
2022-09-23T02:31:20.021Z,100167.84
2022-09-23T02:33:57.240Z,100171.19
2022-09-23T02:36:42.409Z,100161.53
2022-09-23T02:39:13.042Z,100148.16
2022-09-23T02:41:51.928Z,100162.34
2022-09-23T02:44:20.711Z,100166.03
2022-09-23T02:46:50.202Z,100158.25
2022-09-23T02:49:21.710Z,100164.56
2022-09-23T02:51:48.920Z,100158.97
2022-09-23T02:54:22.073Z,100156.22
2022-09-23T02:56:49.581Z,100166.22
2022-09-23T02:59:19.529Z,100166.22
2022-09-23T03:02:20.666Z,100163.56
2022-09-23T03:05:07.391Z,100166.88
2022-09-23T03:07:52.639Z,100151.25
2022-09-23T03:10:34.068Z,100155.56
2022-09-23T03:13:12.253Z,100160.06
2022-09-23T03:15:53.484Z,100153.00
2022-09-23T03:18:35.488Z,100161.09
2022-09-23T03:21:08.562Z,100157.56
2022-09-23T03:23:39.219Z,100165.75
2022-09-23T03:26:12.378Z,100157.31
2022-09-23T03:28:42.768Z,100157.50
2022-09-23T03:31:13.105Z,100152.09
2022-09-23T03:33:45.288Z,100155.75
2022-09-23T03:36:33.386Z,100159.41
2022-09-23T03:39:08.183Z,100166.66
2022-09-23T03:41:42.521Z,100172.66
2022-09-23T03:44:10.579Z,100171.63
2022-09-23T03:46:37.615Z,100171.44
2022-09-23T03:49:11.148Z,100170.62
2022-09-23T03:51:41.554Z,100171.25
2022-09-23T03:54:11.235Z,100171.06
2022-09-23T03:56:38.465Z,100164.94
2022-09-23T03:59:05.374Z,100172.75
2022-09-23T04:01:32.574Z,100157.69
2022-09-23T04:04:00.298Z,100164.56
2022-09-23T04:06:27.235Z,100161.72
2022-09-23T04:08:54.134Z,100168.72
2022-09-23T04:11:21.236Z,100176.50
2022-09-23T04:13:48.045Z,100165.19
2022-09-23T04:16:15.344Z,100169.34
2022-09-23T04:18:43.001Z,100165.00
2022-09-23T04:21:09.857Z,100169.16
2022-09-23T04:23:36.781Z,100176.97
2022-09-23T04:26:05.505Z,100174.97
2022-09-23T04:28:32.746Z,100173.13
2022-09-23T04:31:00.298Z,100163.19
2022-09-23T04:33:27.387Z,100172.56
2022-09-23T04:35:56.198Z,100179.53
2022-09-23T04:38:23.028Z,100165.94
2022-09-23T04:40:50.309Z,100167.88
2022-09-23T04:43:17.403Z,100167.69
2022-09-23T04:45:44.776Z,100161.97
2022-09-23T04:48:13.938Z,100167.31
2022-09-23T04:50:40.769Z,100170.44
2022-09-23T04:53:08.154Z,100177.22
2022-09-23T04:55:35.256Z,100162.66
2022-09-23T04:58:02.048Z,100173.94
2022-09-23T05:00:28.958Z,100186.50
2022-09-23T05:02:56.132Z,100180.81
2022-09-23T05:05:24.210Z,100172.00
2022-09-23T05:07:51.255Z,100184.13
2022-09-23T05:10:18.423Z,100168.03
2022-09-23T05:12:45.395Z,100169.53
2022-09-23T05:15:13.145Z,100168.34
2022-09-23T05:17:40.437Z,100169.97
2022-09-23T05:20:08.186Z,100180.72
2022-09-23T05:22:35.166Z,100175.41
2022-09-23T05:25:02.883Z,100176.03
2022-09-23T05:27:29.704Z,100176.66
2022-09-23T05:29:56.519Z,100173.81
2022-09-23T05:32:23.723Z,100170.13
2022-09-23T05:34:50.658Z,100172.81
2022-09-23T05:37:17.459Z,100174.66
2022-09-23T05:39:44.601Z,100172.81
2022-09-23T05:42:12.486Z,100162.06
2022-09-23T05:44:39.368Z,100171.78
2022-09-23T05:47:06.659Z,100166.00
2022-09-23T05:49:58.047Z,100168.19
2022-09-23T05:52:21.101Z,100169.47
2022-09-23T05:54:47.939Z,100161.47
2022-09-23T05:57:14.876Z,100177.97
2022-09-23T05:59:47.370Z,100169.63
2022-09-23T06:02:15.196Z,100173.75
2022-09-23T06:04:43.087Z,100159.31
2022-09-23T06:07:10.841Z,100174.59
2022-09-23T06:09:37.864Z,100174.97
2022-09-23T06:12:06.461Z,100170.44
2022-09-23T06:14:33.453Z,100166.69
2022-09-23T06:17:00.342Z,100179.44
2022-09-23T06:19:27.443Z,100175.31
2022-09-23T06:21:54.328Z,100184.78
2022-09-23T06:24:25.982Z,100182.97
2022-09-23T06:26:55.875Z,100174.69
2022-09-23T06:29:22.686Z,100192.59
2022-09-23T06:31:50.375Z,100185.63
2022-09-23T06:34:18.024Z,100190.97
2022-09-23T06:36:46.569Z,100190.13
2022-09-23T06:39:17.096Z,100190.78
2022-09-23T06:41:45.535Z,100193.88
2022-09-23T06:44:14.009Z,100195.53
2022-09-23T06:46:41.333Z,100185.06
2022-09-23T06:49:08.761Z,100194.78
2022-09-23T06:51:35.616Z,100194.41
2022-09-23T06:54:02.706Z,100191.56
2022-09-23T06:56:32.530Z,100192.66
2022-09-23T06:59:01.853Z,100183.41
2022-09-23T07:01:29.499Z,100191.88
2022-09-23T07:03:56.677Z,100190.66
2022-09-23T07:06:23.506Z,100194.19
2022-09-23T07:08:51.316Z,100183.59
2022-09-23T07:11:22.406Z,100186.75
2022-09-23T07:13:49.872Z,100177.66
2022-09-23T07:16:17.230Z,100192.47
2022-09-23T07:18:45.115Z,100180.50
2022-09-23T07:21:15.466Z,100181.31
2022-09-23T07:23:44.560Z,100185.84
2022-09-23T07:26:13.201Z,100184.66
2022-09-23T07:28:40.501Z,100179.56
2022-09-23T07:31:10.448Z,100176.13
2022-09-23T07:33:39.935Z,100174.56
2022-09-23T07:36:10.193Z,100172.81
2022-09-23T07:38:42.857Z,100166.69
2022-09-23T07:41:15.769Z,100161.59
2022-09-23T07:43:44.170Z,100160.78
2022-09-23T07:46:16.575Z,100164.69
2022-09-23T07:48:45.869Z,100168.53
2022-09-23T07:51:18.664Z,100170.16
2022-09-23T07:53:50.671Z,100169.16
2022-09-23T07:56:19.385Z,100171.81
2022-09-23T07:59:03.723Z,100165.47
2022-09-23T08:01:36.730Z,100169.19
2022-09-23T08:04:07.802Z,100170.06
2022-09-23T08:06:48.650Z,100168.84
2022-09-23T08:09:17.771Z,100160.47
2022-09-23T08:11:44.944Z,100167.91
2022-09-23T08:14:13.631Z,100167.72
2022-09-23T08:16:42.219Z,100168.56
2022-09-23T08:19:09.087Z,100170.41
2022-09-23T08:21:37.682Z,100165.84
2022-09-23T08:24:06.868Z,100168.09
2022-09-23T08:26:34.341Z,100172.16
2022-09-23T08:29:01.622Z,100170.91
2022-09-23T08:31:28.877Z,100167.56
2022-09-23T08:33:57.019Z,100172.44
2022-09-23T08:36:24.415Z,100163.97
2022-09-23T08:38:52.239Z,100168.25
2022-09-23T08:41:40.058Z,100159.56
2022-09-23T08:44:16.525Z,100171.12
2022-09-23T08:46:52.722Z,100169.03
2022-09-23T08:49:39.437Z,100159.37
2022-09-23T08:52:21.473Z,100163.88
2022-09-23T08:54:53.150Z,100155.19
2022-09-23T09:00:53.432Z,100158.69
2022-09-23T09:03:26.401Z,100158.87
2022-09-23T09:05:55.230Z,100159.31
2022-09-23T09:08:36.096Z,100147.94
2022-09-23T09:11:03.738Z,100154.81
2022-09-23T09:13:33.043Z,100148.84
2022-09-23T09:16:15.156Z,100156.66
2022-09-23T09:18:55.190Z,100153.59
2022-09-23T09:21:32.487Z,100150.31
2022-09-23T09:24:00.384Z,100152.97
2022-09-23T09:26:30.986Z,100164.47
2022-09-23T09:29:17.113Z,100154.41
2022-09-23T09:31:50.941Z,100165.94
2022-09-23T09:34:44.559Z,100158.31
2022-09-23T09:37:33.699Z,100154.03
2022-09-23T09:40:00.704Z,100147.47
2022-09-23T09:42:40.118Z,100143.75
2022-09-23T09:45:15.042Z,100144.81
2022-09-23T09:47:52.233Z,100146.31
2022-09-23T09:50:49.610Z,100150.88
2022-09-23T09:53:21.904Z,100148.28
2022-09-23T09:56:03.727Z,100146.69
2022-09-23T09:58:46.455Z,100145.06
2022-09-23T10:01:31.960Z,100136.44
2022-09-23T10:04:03.699Z,100148.59
2022-09-23T10:06:35.740Z,100142.00
2022-09-23T10:09:17.142Z,100144.66
2022-09-23T10:12:03.316Z,100150.00
2022-09-23T10:14:31.652Z,100148.00
2022-09-23T10:17:05.654Z,100142.19
2022-09-23T10:19:35.997Z,100146.09
2022-09-23T10:22:09.781Z,100152.84
2022-09-23T10:24:37.042Z,100144.22
2022-09-23T10:27:12.144Z,100143.13
2022-09-23T10:30:00.613Z,100142.94
2022-09-23T10:32:30.861Z,100130.75
2022-09-23T10:35:10.696Z,100146.63
2022-09-23T10:37:50.692Z,100129.72
2022-09-23T10:40:49.365Z,100143.13
2022-09-23T10:43:51.820Z,100127.06
2022-09-23T10:46:38.917Z,100126.03
2022-09-23T10:49:44.543Z,100141.28
2022-09-23T10:52:24.062Z,100133.47
2022-09-23T10:55:09.467Z,100134.53
2022-09-23T10:57:45.904Z,100127.31
2022-09-23T11:00:51.887Z,100134.56
2022-09-23T11:03:38.797Z,100131.50
2022-09-23T11:06:25.148Z,100132.34
2022-09-23T11:09:02.182Z,100124.16
2022-09-23T11:11:50.236Z,100127.47
2022-09-23T11:14:23.238Z,100127.09
2022-09-23T11:16:58.594Z,100130.22
2022-09-23T11:20:05.330Z,100129.00
2022-09-23T11:22:49.745Z,100126.00
2022-09-23T11:25:30.486Z,100127.63
2022-09-23T11:28:30.534Z,100120.66
2022-09-23T11:31:31.605Z,100129.09
2022-09-23T11:34:04.398Z,100119.84
2022-09-23T11:36:37.862Z,100113.25
2022-09-23T11:39:24.108Z,100125.19
2022-09-23T11:41:56.387Z,100126.00
2022-09-23T11:44:37.592Z,100122.41
2022-09-23T11:47:11.076Z,100121.16
2022-09-23T11:49:47.689Z,100117.03
2022-09-23T11:52:32.055Z,100111.69
2022-09-23T11:55:27.618Z,100109.25
2022-09-23T11:58:01.052Z,100110.09
2022-09-23T12:00:36.311Z,100108.91
2022-09-23T12:03:18.496Z,100094.34
2022-09-23T12:05:51.594Z,100095.81
2022-09-23T12:08:34.600Z,100102.66
2022-09-23T12:11:31.028Z,100097.13
2022-09-23T12:14:04.352Z,100094.66
2022-09-23T12:17:04.735Z,100093.25
2022-09-23T12:20:04.183Z,100098.34
2022-09-23T12:22:57.584Z,100101.00
2022-09-23T12:25:40.957Z,100087.44
2022-09-23T12:28:15.527Z,100095.81
2022-09-23T12:30:43.671Z,100095.41
2022-09-23T12:33:24.856Z,100105.22
2022-09-23T12:35:54.981Z,100092.63
2022-09-23T12:38:30.648Z,100101.87
2022-09-23T12:40:58.043Z,100106.56
2022-09-23T12:43:34.579Z,100100.41
2022-09-23T12:46:27.792Z,100115.78
2022-09-23T12:48:57.398Z,100111.22
2022-09-23T12:51:26.643Z,100099.66
2022-09-23T12:53:59.738Z,100108.72
2022-09-23T12:56:31.710Z,100104.78
2022-09-23T12:59:00.912Z,100108.31
2022-09-23T13:01:36.227Z,100107.69
2022-09-23T13:04:22.168Z,100113.66
2022-09-23T13:07:09.124Z,100104.00
2022-09-23T13:09:46.649Z,100096.56
2022-09-23T13:12:29.668Z,100105.66
2022-09-23T13:15:00.858Z,100101.13
2022-09-23T13:17:34.531Z,100102.13
2022-09-23T13:20:21.104Z,100093.94
2022-09-23T13:22:51.978Z,100100.94
2022-09-23T13:25:27.919Z,100092.09
2022-09-23T13:27:58.676Z,100095.78
2022-09-23T13:30:28.914Z,100100.31
2022-09-23T13:33:19.237Z,100098.03
2022-09-23T13:35:51.551Z,100096.19
2022-09-23T13:38:26.204Z,100093.28
2022-09-23T13:41:08.041Z,100089.16
2022-09-23T13:43:41.557Z,100097.56
2022-09-23T13:46:16.132Z,100096.50
2022-09-23T13:48:45.889Z,100093.59
2022-09-23T13:51:27.903Z,100093.12
2022-09-23T13:53:57.914Z,100093.34
2022-09-23T13:56:28.233Z,100088.34
2022-09-23T13:59:20.391Z,100091.25
2022-09-23T14:01:47.363Z,100086.56
2022-09-23T14:04:25.490Z,100092.25
2022-09-23T14:06:54.666Z,100078.88
2022-09-23T14:09:27.490Z,100088.97
2022-09-23T14:11:58.275Z,100084.63
2022-09-23T14:14:28.069Z,100079.06
2022-09-23T14:16:56.227Z,100102.50
2022-09-23T14:19:25.445Z,100089.97
2022-09-23T14:21:54.674Z,100086.66
2022-09-23T14:24:34.567Z,100099.03
2022-09-23T14:27:14.863Z,100107.03
2022-09-23T14:29:45.172Z,100103.72
2022-09-23T14:32:21.127Z,100106.19
2022-09-23T14:35:09.357Z,100105.75
2022-09-23T14:37:55.096Z,100105.94
2022-09-23T14:40:26.614Z,100109.81
2022-09-23T14:43:11.994Z,100108.37
2022-09-23T14:45:40.757Z,100106.53
2022-09-23T14:48:16.437Z,100100.09
2022-09-23T14:50:54.733Z,100102.31
2022-09-23T14:53:22.599Z,100097.75
2022-09-23T14:55:57.482Z,100107.19
2022-09-23T14:58:31.683Z,100100.25
2022-09-23T15:01:01.135Z,100094.91
2022-09-23T15:03:29.202Z,100095.09
2022-09-23T15:06:08.795Z,100095.28
2022-09-23T15:08:37.369Z,100100.63
2022-09-23T15:11:08.063Z,100096.28
2022-09-23T15:13:41.800Z,100095.03
2022-09-23T15:16:09.579Z,100083.50
2022-09-23T15:18:41.548Z,100096.44
2022-09-23T15:21:11.173Z,100100.12
2022-09-23T15:23:44.703Z,100099.50
2022-09-23T15:26:16.775Z,100100.50
2022-09-23T15:28:45.075Z,100093.47
2022-09-23T15:31:15.158Z,100080.69
2022-09-23T15:33:49.326Z,100104.13
2022-09-23T15:36:17.779Z,100102.84
2022-09-23T15:38:45.165Z,100104.87
2022-09-23T15:41:14.339Z,100108.94
2022-09-23T15:43:42.136Z,100102.31
2022-09-23T15:46:28.188Z,100102.72
2022-09-23T15:49:04.870Z,100107.59
2022-09-23T15:51:32.244Z,100103.84
2022-09-23T15:53:59.486Z,100102.75
2022-09-23T15:56:29.234Z,100107.47
2022-09-23T15:58:56.085Z,100109.50
2022-09-23T16:01:30.369Z,100104.69
2022-09-23T16:04:01.178Z,100113.72
2022-09-23T16:06:28.573Z,100103.16
2022-09-23T16:08:55.962Z,100114.09
2022-09-23T16:11:31.833Z,100105.59
2022-09-23T16:14:00.581Z,100108.06
2022-09-23T16:16:28.440Z,100113.19
2022-09-23T16:18:55.598Z,100112.47
2022-09-23T16:21:25.902Z,100113.38
2022-09-23T16:23:54.752Z,100120.56
2022-09-23T16:26:29.748Z,100120.09
2022-09-23T16:28:58.667Z,100117.63
2022-09-23T16:31:29.708Z,100129.28
2022-09-23T16:34:00.263Z,100117.72
2022-09-23T16:36:31.196Z,100123.06
2022-09-23T16:39:00.433Z,100127.16
2022-09-23T16:41:32.265Z,100117.91
2022-09-23T16:44:01.653Z,100113.16
2022-09-23T16:46:29.329Z,100126.72
2022-09-23T16:48:57.721Z,100119.91
2022-09-23T16:51:27.456Z,100128.94
2022-09-23T16:53:56.084Z,100131.59
2022-09-23T16:56:28.689Z,100133.59
2022-09-23T16:58:56.895Z,100121.22
2022-09-23T17:01:47.468Z,100121.41
2022-09-23T17:04:16.577Z,100129.50
2022-09-23T17:06:46.372Z,100126.34
2022-09-23T17:09:13.271Z,100133.16
2022-09-23T17:11:40.542Z,100126.19
2022-09-23T17:14:07.415Z,100126.84
2022-09-23T17:16:35.030Z,100129.50
2022-09-23T17:19:08.236Z,100123.06
2022-09-23T17:21:35.577Z,100132.16
2022-09-23T17:24:03.618Z,100132.34
2022-09-23T17:26:31.098Z,100129.88
2022-09-23T17:28:59.613Z,100130.69
2022-09-23T17:31:26.978Z,100131.69
2022-09-23T17:33:54.309Z,100131.69
2022-09-23T17:36:21.960Z,100114.16
2022-09-23T17:38:53.632Z,100130.41
2022-09-23T17:41:21.090Z,100135.56
2022-09-23T17:43:53.422Z,100128.75
2022-09-23T17:46:20.650Z,100129.59
2022-09-23T17:48:47.984Z,100128.09
2022-09-23T17:51:18.886Z,100128.59
2022-09-23T17:53:47.297Z,100124.91
2022-09-23T17:56:22.684Z,100129.41
2022-09-23T17:58:50.431Z,100122.25
2022-09-23T18:01:20.721Z,100124.44
2022-09-23T18:03:48.700Z,100117.63
2022-09-23T18:06:20.784Z,100113.53
2022-09-23T18:08:49.608Z,100117.19
2022-09-23T18:11:26.031Z,100124.06
2022-09-23T18:13:56.088Z,100125.09
2022-09-23T18:16:26.361Z,100123.00
2022-09-23T18:18:55.388Z,100118.00
2022-09-23T18:21:24.191Z,100127.19
2022-09-23T18:23:51.348Z,100123.06
2022-09-23T18:26:21.380Z,100123.59
2022-09-23T18:28:49.782Z,100121.13
2022-09-23T18:31:16.925Z,100124.97
2022-09-23T18:33:49.501Z,100125.16
2022-09-23T18:36:16.505Z,100118.37
2022-09-23T18:38:43.444Z,100106.25
2022-09-23T18:41:11.728Z,100102.47
2022-09-23T18:43:42.277Z,100110.78
2022-09-23T18:46:13.468Z,100111.75
2022-09-23T18:48:59.637Z,100118.09
2022-09-23T18:51:29.258Z,100108.81
2022-09-23T18:53:58.511Z,100109.47
2022-09-23T18:56:34.626Z,100097.91
2022-09-23T18:59:02.175Z,100112.13
2022-09-23T19:01:29.238Z,100106.62
2022-09-23T19:03:57.284Z,100116.44
2022-09-23T19:06:24.895Z,100114.78
2022-09-23T19:08:54.234Z,100108.44
2022-09-23T19:11:22.550Z,100107.81
2022-09-23T19:14:02.020Z,100096.91
2022-09-23T19:16:31.906Z,100110.28
2022-09-23T19:19:00.026Z,100094.25
2022-09-23T19:21:28.345Z,100105.78
2022-09-23T19:23:57.883Z,100104.16
2022-09-23T19:26:27.676Z,100105.78
2022-09-23T19:28:56.770Z,100100.28
2022-09-23T19:31:26.114Z,100092.84
2022-09-23T19:33:56.437Z,100093.12
2022-09-23T19:36:31.043Z,100099.28
2022-09-23T19:39:00.378Z,100100.28
2022-09-23T19:41:31.885Z,100097.63
2022-09-23T19:44:03.338Z,100087.81
2022-09-23T19:46:32.488Z,100095.63
2022-09-23T19:49:00.990Z,100084.16
2022-09-23T19:51:28.341Z,100092.13
2022-09-23T19:53:55.225Z,100078.16
2022-09-23T19:56:22.587Z,100084.78
2022-09-23T19:58:55.613Z,100085.78
2022-09-23T20:01:23.353Z,100081.19
2022-09-23T20:03:50.748Z,100091.13
2022-09-23T20:06:18.134Z,100084.16
2022-09-23T20:08:45.503Z,100088.44
2022-09-23T20:11:15.813Z,100080.47
2022-09-23T20:13:47.174Z,100084.78
2022-09-23T20:16:17.165Z,100086.28
2022-09-23T20:18:45.986Z,100078.47
2022-09-23T20:21:15.469Z,100076.44
2022-09-23T20:23:43.074Z,100075.44
2022-09-23T20:26:29.135Z,100075.63
2022-09-23T20:28:56.292Z,100074.78
2022-09-23T20:31:23.849Z,100072.31
2022-09-23T20:33:58.169Z,100077.00
2022-09-23T20:36:26.999Z,100075.16
2022-09-23T20:38:59.692Z,100067.91
2022-09-23T20:41:29.804Z,100079.28
2022-09-23T20:43:59.479Z,100077.63
2022-09-23T20:46:28.701Z,100076.81
2022-09-23T20:48:56.862Z,100067.09
2022-09-23T20:51:25.552Z,100077.81
2022-09-23T20:53:52.971Z,100076.81
2022-09-23T20:56:23.491Z,100070.66
2022-09-23T20:58:52.626Z,100069.00
2022-09-23T21:01:21.099Z,100073.50
2022-09-23T21:03:50.334Z,100053.97
2022-09-23T21:06:19.469Z,100061.84
2022-09-23T21:08:46.914Z,100066.34
2022-09-23T21:11:16.524Z,100055.88
2022-09-23T21:13:49.185Z,100056.44
2022-09-23T21:16:19.142Z,100059.19
2022-09-23T21:18:46.836Z,100062.69
2022-09-23T21:21:14.360Z,100054.88
2022-09-23T21:23:43.363Z,100062.88
2022-09-23T21:26:10.610Z,100061.22
2022-09-23T21:28:40.297Z,100064.88
2022-09-23T21:31:13.330Z,100061.56
2022-09-23T21:33:40.471Z,100067.53
2022-09-23T21:36:07.904Z,100062.56
2022-09-23T21:38:36.322Z,100051.66
2022-09-23T21:41:06.270Z,100058.91
2022-09-23T21:43:35.529Z,100057.69
2022-09-23T21:46:05.354Z,100057.87
2022-09-23T21:48:34.314Z,100053.59
2022-09-23T21:51:03.816Z,100057.87
2022-09-23T21:53:32.291Z,100052.38
2022-09-23T21:56:08.471Z,100053.41
2022-09-23T21:58:37.897Z,100046.91
2022-09-23T22:01:16.178Z,100054.88
2022-09-23T22:03:44.932Z,100057.53
2022-09-23T22:06:21.620Z,100054.22
2022-09-23T22:08:51.520Z,100044.31
2022-09-23T22:11:39.720Z,100053.41
2022-09-23T22:14:10.019Z,100062.22
2022-09-23T22:16:36.978Z,100055.03
2022-09-23T22:19:07.617Z,100050.94
2022-09-23T22:21:37.480Z,100055.03
2022-09-23T22:24:06.853Z,100046.91
2022-09-23T22:26:42.573Z,100039.25
2022-09-23T22:29:31.237Z,100041.47
2022-09-23T22:32:18.725Z,100050.56
2022-09-23T22:34:51.463Z,100042.28
2022-09-23T22:37:23.830Z,100053.22
2022-09-23T22:39:50.641Z,100046.91
2022-09-23T22:42:18.193Z,100043.59
2022-09-23T22:44:46.004Z,100035.34
2022-09-23T22:47:12.843Z,100043.75
2022-09-23T22:49:40.830Z,100034.31
2022-09-23T22:52:08.431Z,100046.44
2022-09-23T22:54:35.609Z,100045.59
2022-09-23T22:57:07.577Z,100047.25
2022-09-23T22:59:36.004Z,100050.56
2022-09-23T23:02:03.143Z,100041.72
2022-09-23T23:04:30.609Z,100040.91
2022-09-23T23:06:58.761Z,100027.53
2022-09-23T23:09:26.284Z,100037.44
2022-09-23T23:11:53.206Z,100031.28
2022-09-23T23:14:20.716Z,100040.09
2022-09-23T23:16:48.776Z,100041.91
2022-09-23T23:19:17.187Z,100038.44
2022-09-23T23:21:45.490Z,100034.13
2022-09-23T23:24:18.325Z,100034.13
2022-09-23T23:26:46.699Z,100033.31
2022-09-23T23:29:16.165Z,100029.34
2022-09-23T23:31:43.960Z,100016.41
2022-09-23T23:34:20.551Z,100032.50
2022-09-23T23:36:54.749Z,100027.81
2022-09-23T23:39:24.648Z,100019.38
2022-09-23T23:41:56.121Z,100017.34
2022-09-23T23:44:24.660Z,100021.47
2022-09-23T23:46:52.106Z,100025.62
2022-09-23T23:49:19.487Z,100004.78
2022-09-23T23:51:47.409Z,100018.81
2022-09-23T23:54:15.393Z,100016.97
2022-09-23T23:56:42.757Z,100016.16
2022-09-23T23:59:10.102Z,100018.81
